»·PEaware :: AAL50 KDFW-EGLL

AAL50 :: KDFW-EGLL

FLIGHT INFORMATION

Flight Status: Arrived
Operator:
American Airlines
More flights by this operator :: More flights under this callsign
Pilot: Drew L. (13237)
Aircraft: BOEING 767-300
(B763)
More flights by this aircraft type
Origin: KDFW Dallas-Ft Worth Intl
United States
Destination: EGLL Heathrow
United Kingdom
More flights between these airports :: More routes between these airports
Route: DALL4 SQS J52 VUZ RMG ODF SPA Q60 BYJAC J14 GSO FKN ORF AR9 ZIBUT LARGE DOVEY NATW SOMAX NATW ATSUR GAPLI UL620 GIBSO UM17 BILNI
File this flight plan on PilotEdge
Remarks: 767-300ER
Altitude:
(Current/Filed)
31,000ft
Speed:
(Current/Filed)
500kts
Departed: 28-Jan-17 12:35 AM
Arrived: 28-Jan-17 09:38 AM
Distance/Time
Traveled:
4116nm/9:03
Distance/Time
To Go:
Arrived

Flight Plot

Page will automatically refresh every two minutes.

Flight plan parsing failed; only flown route is shown


Map Options




Map Legend


Flown Route
Filed Route
Departure Airport
Arrival Airport
Navaid (VOR, NDB)
Fix

Horizontal Profiles

Position Reports

Time Latitude Longitude Heading Altitude Ground
Speed
27-Jan-17 23:49 32.900035 -97.045817 139 617ft 0kts
27-Jan-17 23:50 32.900035 -97.045817 139 617ft 0kts
27-Jan-17 23:51 32.900035 -97.045817 139 617ft 0kts
27-Jan-17 23:52 32.900035 -97.045817 139 617ft 0kts
27-Jan-17 23:53 32.900035 -97.045817 139 617ft 0kts
27-Jan-17 23:54 32.900035 -97.045817 139 617ft 0kts
27-Jan-17 23:55 32.900035 -97.045817 139 617ft 0kts
27-Jan-17 23:56 32.900035 -97.045817 139 617ft 0kts
27-Jan-17 23:57 32.900035 -97.045817 139 617ft 0kts
27-Jan-17 23:58 32.900035 -97.045817 139 617ft 0kts
27-Jan-17 23:59 32.900035 -97.045817 139 617ft 0kts
28-Jan-17 00:00 32.900035 -97.045817 139 617ft 0kts
28-Jan-17 00:01 32.900035 -97.045817 139 617ft 0kts
28-Jan-17 00:02 32.900035 -97.045817 139 617ft 0kts
28-Jan-17 00:03 32.900035 -97.045817 139 617ft 0kts
28-Jan-17 00:04 32.900035 -97.045817 139 617ft 0kts
28-Jan-17 00:05 32.900035 -97.045817 139 617ft 0kts
28-Jan-17 00:06 32.900035 -97.045817 139 617ft 0kts
28-Jan-17 00:07 32.900035 -97.045817 139 617ft 0kts
28-Jan-17 00:08 32.900483 -97.046267 139 617ft 2kts
28-Jan-17 00:09 32.900778 -97.046887 89 617ft 2kts
28-Jan-17 00:10 32.900776 -97.047231 89 617ft 0kts
28-Jan-17 00:11 32.900776 -97.047231 89 617ft 0kts
28-Jan-17 00:12 32.900776 -97.047231 89 617ft 0kts
28-Jan-17 00:13 32.900776 -97.047231 89 617ft 0kts
28-Jan-17 00:14 32.900776 -97.047231 89 617ft 0kts
28-Jan-17 00:15 32.900635 -97.047109 186 617ft 0kts
28-Jan-17 00:16 32.899841 -97.047509 204 617ft 5kts
28-Jan-17 00:17 32.898051 -97.047672 182 617ft 7kts
28-Jan-17 00:18 32.895075 -97.047746 181 617ft 16kts
28-Jan-17 00:19 32.889782 -97.047765 179 617ft 16kts
28-Jan-17 00:20 32.885233 -97.047781 184 617ft 11kts
28-Jan-17 00:21 32.881913 -97.048024 173 617ft 12kts
28-Jan-17 00:22 32.879228 -97.048289 227 617ft 9kts
28-Jan-17 00:23 32.879106 -97.050004 269 617ft 3kts
28-Jan-17 00:24 32.879110 -97.049641 269 617ft 0kts
28-Jan-17 00:25 32.879110 -97.049641 269 617ft 0kts
28-Jan-17 00:26 32.879110 -97.049641 269 617ft 0kts
28-Jan-17 00:27 32.879110 -97.049641 269 617ft 0kts
28-Jan-17 00:28 32.879110 -97.049641 269 617ft 0kts
28-Jan-17 00:29 32.879110 -97.049641 269 617ft 0kts
28-Jan-17 00:30 32.879110 -97.049641 269 617ft 0kts
28-Jan-17 00:31 32.879110 -97.049641 269 617ft 0kts
28-Jan-17 00:32 32.879110 -97.049641 269 617ft 0kts
28-Jan-17 00:33 32.879157 -97.050705 296 617ft 7kts
28-Jan-17 00:34 32.880199 -97.050923 0 617ft 0kts
28-Jan-17 00:35 32.894287 -97.050821 359 618ft 163kts
28-Jan-17 00:36 32.948125 -97.050851 357 2977ft 204kts
28-Jan-17 00:37 33.000482 -97.021332 62 5706ft 259kts
28-Jan-17 00:38 33.023160 -96.935223 100 8479ft 296kts
28-Jan-17 00:39 33.004336 -96.838423 90 11212ft 312kts
28-Jan-17 00:40 32.996384 -96.725367 93 13220ft 380kts
28-Jan-17 00:41 32.985893 -96.594779 93 15638ft 411kts
28-Jan-17 00:42 32.974523 -96.455643 94 18159ft 439kts
28-Jan-17 00:43 32.962219 -96.307304 94 20317ft 466kts
28-Jan-17 00:44 32.948275 -96.141976 95 21119ft 528kts
28-Jan-17 00:45 32.936492 -95.965145 85 23154ft 550kts
28-Jan-17 00:46 32.964148 -95.783849 79 24847ft 569kts
28-Jan-17 00:47 32.985541 -95.596024 81 26891ft 576kts
28-Jan-17 00:48 33.005463 -95.407398 82 28847ft 577kts
28-Jan-17 00:49 33.025027 -95.218793 82 30640ft 576kts
28-Jan-17 00:50 33.044536 -95.027684 82 31351ft 591kts
28-Jan-17 00:51 33.064304 -94.833917 83 31318ft 593kts
28-Jan-17 00:52 33.083865 -94.639005 83 31324ft 591kts
28-Jan-17 00:53 33.102652 -94.446221 83 31321ft 586kts
28-Jan-17 00:54 33.121057 -94.254050 83 31306ft 582kts
28-Jan-17 00:55 33.139104 -94.062543 83 31310ft 582kts
28-Jan-17 00:56 33.156880 -93.871310 83 31298ft 582kts
28-Jan-17 00:57 33.174828 -93.679635 84 31297ft 582kts
28-Jan-17 00:58 33.192008 -93.488020 83 31301ft 582kts
28-Jan-17 00:59 33.208861 -93.296381 83 31305ft 582kts
28-Jan-17 01:00 33.225409 -93.104792 84 31309ft 582kts
28-Jan-17 01:01 33.241775 -92.911866 84 31317ft 590kts
28-Jan-17 01:02 33.258745 -92.717137 83 31296ft 591kts
28-Jan-17 01:03 33.276793 -92.523626 84 31301ft 591kts
28-Jan-17 01:04 33.294606 -92.328134 84 31301ft 591kts
28-Jan-17 01:05 33.312036 -92.133474 83 31283ft 591kts
28-Jan-17 01:06 33.329165 -91.938601 84 31286ft 591kts
28-Jan-17 01:07 33.346500 -91.743762 84 31270ft 591kts
28-Jan-17 01:08 33.363106 -91.548487 85 31273ft 591kts
28-Jan-17 01:09 33.379326 -91.353403 84 31275ft 591kts
28-Jan-17 01:10 33.395259 -91.157984 84 31272ft 593kts
28-Jan-17 01:11 33.411056 -90.960425 84 31278ft 602kts
28-Jan-17 01:12 33.427081 -90.761957 85 31259ft 602kts
28-Jan-17 01:13 33.442361 -90.563860 85 31259ft 602kts
28-Jan-17 01:14 33.457304 -90.364789 85 31261ft 601kts
28-Jan-17 01:15 33.465789 -90.166133 90 31270ft 600kts
28-Jan-17 01:16 33.469242 -89.965762 90 31271ft 600kts
28-Jan-17 01:17 33.472803 -89.766465 91 31251ft 600kts
28-Jan-17 01:18 33.475661 -89.567478 90 31254ft 600kts
28-Jan-17 01:19 33.478113 -89.368170 90 31264ft 600kts
28-Jan-17 01:20 33.480255 -89.168418 91 31263ft 600kts
28-Jan-17 01:21 33.482071 -88.968830 91 31271ft 603kts
28-Jan-17 01:22 33.484015 -88.770318 92 31249ft 614kts
28-Jan-17 01:23 33.485294 -88.565914 92 31210ft 613kts
28-Jan-17 01:24 33.503735 -88.362545 82 31207ft 617kts
28-Jan-17 01:25 33.527732 -88.159630 82 31216ft 617kts
28-Jan-17 01:26 33.551389 -87.957062 82 31226ft 617kts
28-Jan-17 01:27 33.575216 -87.754412 83 31219ft 616kts
28-Jan-17 01:28 33.598360 -87.551086 83 31218ft 617kts
28-Jan-17 01:29 33.621115 -87.347406 83 31204ft 616kts
28-Jan-17 01:30 33.643415 -87.144517 83 31204ft 616kts
28-Jan-17 01:31 33.664318 -86.951542 82 33196ft 598kts
28-Jan-17 01:32 33.710019 -86.760548 69 34064ft 599kts
28-Jan-17 01:33 33.763167 -86.572267 69 35077ft 595kts
28-Jan-17 01:34 33.816451 -86.382455 68 35214ft 611kts
28-Jan-17 01:35 33.870419 -86.188739 69 35197ft 612kts
28-Jan-17 01:36 33.924220 -85.994403 68 35195ft 612kts
28-Jan-17 01:37 33.977396 -85.802532 69 35173ft 612kts
28-Jan-17 01:38 34.030525 -85.608461 69 35173ft 613kts
28-Jan-17 01:39 34.083364 -85.413511 69 35139ft 612kts
28-Jan-17 01:40 34.135672 -85.219192 69 35146ft 612kts
28-Jan-17 01:41 34.190928 -85.024351 67 35156ft 618kts
28-Jan-17 01:42 34.249164 -84.831202 68 35123ft 619kts
28-Jan-17 01:43 34.307769 -84.635068 68 35126ft 620kts
28-Jan-17 01:44 34.365590 -84.439487 68 35123ft 621kts
28-Jan-17 01:45 34.423232 -84.243015 67 35128ft 620kts
28-Jan-17 01:46 34.480525 -84.046515 68 35110ft 620kts
28-Jan-17 01:47 34.537615 -83.850034 68 35061ft 620kts
28-Jan-17 01:48 34.594475 -83.653552 69 35035ft 621kts
28-Jan-17 01:49 34.650785 -83.456364 68 35043ft 621kts
28-Jan-17 01:50 34.706086 -83.257650 72 35056ft 622kts
28-Jan-17 01:51 34.754909 -83.062430 70 35065ft 620kts
28-Jan-17 01:52 34.804843 -82.862521 71 35031ft 621kts
28-Jan-17 01:53 34.854824 -82.662265 72 35016ft 621kts
28-Jan-17 01:54 34.904173 -82.461199 72 35024ft 617kts
28-Jan-17 01:55 34.952266 -82.263610 72 35039ft 607kts
28-Jan-17 01:56 34.999517 -82.067948 71 35046ft 597kts
28-Jan-17 01:57 35.057478 -81.883819 53 35043ft 579kts
28-Jan-17 01:58 35.144249 -81.719457 51 35017ft 579kts
28-Jan-17 01:59 35.231570 -81.554172 51 35017ft 579kts
28-Jan-17 02:00 35.318411 -81.389074 51 35024ft 579kts
28-Jan-17 02:01 35.405207 -81.223254 52 35027ft 579kts
28-Jan-17 02:02 35.491736 -81.057157 51 35037ft 581kts
28-Jan-17 02:03 35.578546 -80.889735 52 35040ft 590kts
28-Jan-17 02:04 35.666516 -80.720486 52 35010ft 591kts
28-Jan-17 02:05 35.754354 -80.549433 52 35013ft 592kts
28-Jan-17 02:06 35.841689 -80.378474 53 35008ft 592kts
28-Jan-17 02:07 35.928679 -80.207345 52 35005ft 592kts
28-Jan-17 02:08 36.015570 -80.035527 53 34999ft 592kts
28-Jan-17 02:09 36.076385 -79.846476 72 34978ft 600kts
28-Jan-17 02:10 36.123795 -79.649153 73 34993ft 600kts
28-Jan-17 02:11 36.170244 -79.451694 73 35000ft 600kts
28-Jan-17 02:12 36.216328 -79.254122 73 35007ft 600kts
28-Jan-17 02:13 36.262387 -79.054985 73 35014ft 608kts
28-Jan-17 02:14 36.308483 -78.854723 74 34988ft 614kts
28-Jan-17 02:15 36.355016 -78.652033 73 34988ft 613kts
28-Jan-17 02:16 36.400859 -78.448690 74 34995ft 613kts
28-Jan-17 02:17 36.446384 -78.245043 74 35024ft 613kts
28-Jan-17 02:18 36.491649 -78.040774 74 35045ft 613kts
28-Jan-17 02:19 36.536338 -77.838415 74 34988ft 613kts
28-Jan-17 02:20 36.580907 -77.635143 75 34970ft 613kts
28-Jan-17 02:21 36.624991 -77.430808 75 34993ft 613kts
28-Jan-17 02:22 36.668758 -77.226008 75 35001ft 613kts
28-Jan-17 02:23 36.712165 -77.021060 75 35004ft 613kts
28-Jan-17 02:24 36.757781 -76.816116 75 34985ft 620kts
28-Jan-17 02:25 36.803453 -76.608755 75 34973ft 621kts
28-Jan-17 02:26 36.848526 -76.401206 75 34978ft 621kts
28-Jan-17 02:27 36.889377 -76.192249 87 34978ft 617kts
28-Jan-17 02:28 36.897476 -75.979951 92 34968ft 615kts
28-Jan-17 02:29 36.903309 -75.767732 93 34944ft 612kts
28-Jan-17 02:30 36.908360 -75.554869 94 34951ft 613kts
28-Jan-17 02:31 36.912753 -75.342317 94 34956ft 613kts
28-Jan-17 02:32 36.916922 -75.130324 94 34966ft 612kts
28-Jan-17 02:33 36.920619 -74.918749 93 34957ft 614kts
28-Jan-17 02:34 36.924482 -74.709337 94 34926ft 613kts
28-Jan-17 02:35 36.927516 -74.496420 94 34932ft 613kts
28-Jan-17 02:36 36.930445 -74.284123 94 34933ft 614kts
28-Jan-17 02:37 36.933155 -74.071785 93 34927ft 614kts
28-Jan-17 02:38 36.935586 -73.860804 94 34884ft 614kts
28-Jan-17 02:39 36.937504 -73.648778 96 34883ft 612kts
28-Jan-17 02:40 36.937734 -73.436612 95 34888ft 612kts
28-Jan-17 02:41 36.938135 -73.223884 96 34894ft 612kts
28-Jan-17 02:42 36.938269 -73.011991 95 34901ft 612kts
28-Jan-17 02:43 36.940202 -72.799149 88 34871ft 616kts
28-Jan-17 02:44 36.986317 -72.593408 59 34887ft 617kts
28-Jan-17 02:45 37.093272 -72.439932 30 34903ft 579kts
28-Jan-17 02:46 37.207825 -72.296422 40 34896ft 588kts
28-Jan-17 02:47 37.318064 -72.144801 41 34900ft 588kts
28-Jan-17 02:48 37.427881 -71.992380 41 34905ft 589kts
28-Jan-17 02:49 37.537421 -71.840293 41 34810ft 590kts
28-Jan-17 02:50 37.646580 -71.687739 42 34704ft 590kts
28-Jan-17 02:51 37.755430 -71.534351 40 34716ft 581kts
28-Jan-17 02:52 37.863100 -71.382151 40 34706ft 582kts
28-Jan-17 02:53 37.970396 -71.229628 40 34706ft 582kts
28-Jan-17 02:54 38.077383 -71.076821 40 34698ft 583kts
28-Jan-17 02:55 38.185000 -70.922359 40 34695ft 588kts
28-Jan-17 02:56 38.290059 -70.771953 40 34665ft 594kts
28-Jan-17 02:57 38.396057 -70.618438 40 34647ft 592kts
28-Jan-17 02:58 38.504520 -70.460526 40 34644ft 593kts
28-Jan-17 02:59 38.612503 -70.302496 40 34636ft 593kts
28-Jan-17 03:00 38.720598 -70.143554 40 34639ft 594kts
28-Jan-17 03:01 38.828313 -69.984314 40 34647ft 593kts
28-Jan-17 03:02 38.935668 -69.825645 41 34624ft 580kts
28-Jan-17 03:03 39.038072 -69.673162 43 34630ft 554kts
28-Jan-17 03:04 39.138070 -69.523181 43 34635ft 554kts
28-Jan-17 03:05 39.237947 -69.372644 43 34636ft 554kts
28-Jan-17 03:06 39.342875 -69.229379 34 34647ft 546kts
28-Jan-17 03:07 39.453974 -69.096159 36 34642ft 547kts
28-Jan-17 03:08 39.564784 -68.960968 36 34643ft 551kts
28-Jan-17 03:09 39.675957 -68.825443 36 34625ft 554kts
28-Jan-17 03:10 39.787168 -68.688665 36 34627ft 554kts
28-Jan-17 03:11 39.898495 -68.550844 36 34631ft 554kts
28-Jan-17 03:12 40.009788 -68.412389 36 34634ft 554kts
28-Jan-17 03:13 40.120951 -68.273434 36 34637ft 554kts
28-Jan-17 03:14 40.231896 -68.134091 36 34641ft 554kts
28-Jan-17 03:15 40.342665 -67.994301 36 34645ft 555kts
28-Jan-17 03:16 40.453290 -67.854573 36 34626ft 554kts
28-Jan-17 03:17 40.563020 -67.715355 37 34626ft 555kts
28-Jan-17 03:18 40.673451 -67.573989 37 34629ft 556kts
28-Jan-17 03:19 40.783763 -67.432065 37 34633ft 556kts
28-Jan-17 03:20 40.893875 -67.289689 37 34636ft 555kts
28-Jan-17 03:21 41.003622 -67.147093 37 34601ft 550kts
28-Jan-17 03:22 41.108147 -67.007620 46 34440ft 538kts
28-Jan-17 03:23 41.190916 -66.841428 54 34365ft 542kts
28-Jan-17 03:24 41.270502 -66.672187 55 34366ft 543kts
28-Jan-17 03:25 41.349594 -66.501866 55 34367ft 543kts
28-Jan-17 03:26 41.428472 -66.330993 55 34372ft 543kts
28-Jan-17 03:27 41.506977 -66.159959 55 34374ft 543kts
28-Jan-17 03:28 41.585293 -65.988354 55 34373ft 543kts
28-Jan-17 03:29 41.663639 -65.816860 55 34360ft 543kts
28-Jan-17 03:30 41.741866 -65.644027 55 34364ft 543kts
28-Jan-17 03:31 41.819402 -65.471215 55 34366ft 543kts
28-Jan-17 03:32 41.896922 -65.297424 55 34370ft 543kts
28-Jan-17 03:33 41.973901 -65.123833 56 34371ft 543kts
28-Jan-17 03:34 42.050938 -64.949099 56 34375ft 546kts
28-Jan-17 03:35 42.128807 -64.772922 57 34363ft 552kts
28-Jan-17 03:36 42.206559 -64.594703 57 34366ft 552kts
28-Jan-17 03:37 42.283849 -64.416236 57 34368ft 552kts
28-Jan-17 03:38 42.360728 -64.237623 57 34373ft 552kts
28-Jan-17 03:39 42.437464 -64.058254 57 34375ft 552kts
28-Jan-17 03:40 42.513209 -63.880214 57 34280ft 552kts
28-Jan-17 03:41 42.589094 -63.702332 57 34234ft 553kts
28-Jan-17 03:42 42.665186 -63.521275 58 34236ft 553kts
28-Jan-17 03:43 42.740782 -63.340193 58 34239ft 553kts
28-Jan-17 03:44 42.816463 -63.157761 57 34244ft 553kts
28-Jan-17 03:45 42.891567 -62.975604 58 34248ft 557kts
28-Jan-17 03:46 42.966670 -62.793717 59 34235ft 546kts
28-Jan-17 03:47 43.039787 -62.614549 60 34238ft 533kts
28-Jan-17 03:48 43.111356 -62.437685 59 34241ft 533kts
28-Jan-17 03:49 43.182746 -62.260153 59 34243ft 533kts
28-Jan-17 03:50 43.253313 -62.083579 59 34245ft 533kts
28-Jan-17 03:51 43.321605 -61.911609 59 34255ft 532kts
28-Jan-17 03:52 43.389403 -61.741708 60 34213ft 533kts
28-Jan-17 03:53 43.459561 -61.563131 60 34195ft 533kts
28-Jan-17 03:54 43.529509 -61.383770 60 34197ft 533kts
28-Jan-17 03:55 43.598949 -61.204564 60 34195ft 533kts
28-Jan-17 03:56 43.668812 -61.023143 60 34197ft 540kts
28-Jan-17 03:57 43.739316 -60.839749 61 34185ft 542kts
28-Jan-17 03:58 43.809570 -60.655935 61 34190ft 542kts
28-Jan-17 03:59 43.879342 -60.471184 61 34193ft 542kts
28-Jan-17 04:00 43.948888 -60.285758 61 34195ft 542kts
28-Jan-17 04:01 44.017923 -60.100454 61 34198ft 542kts
28-Jan-17 04:02 44.086523 -59.915082 61 34201ft 543kts
28-Jan-17 04:03 44.155402 -59.729637 62 34192ft 542kts
28-Jan-17 04:04 44.223623 -59.542982 62 34195ft 542kts
28-Jan-17 04:05 44.291388 -59.356127 62 34197ft 542kts
28-Jan-17 04:06 44.359080 -59.168199 62 34200ft 542kts
28-Jan-17 04:07 44.426480 -58.979788 62 34202ft 544kts
28-Jan-17 04:08 44.494045 -58.791243 63 34194ft 551kts
28-Jan-17 04:09 44.561833 -58.599586 64 34189ft 551kts
28-Jan-17 04:10 44.629166 -58.407377 64 34191ft 551kts
28-Jan-17 04:11 44.696349 -58.214192 63 34194ft 551kts
28-Jan-17 04:12 44.762934 -58.021354 63 34199ft 551kts
28-Jan-17 04:13 44.828209 -57.832102 64 34200ft 551kts
28-Jan-17 04:14 44.894252 -57.639165 64 34205ft 551kts
28-Jan-17 04:15 44.959989 -57.444682 64 34208ft 551kts
28-Jan-17 04:16 45.024846 -57.251350 64 34210ft 541kts
28-Jan-17 04:17 45.088259 -57.060940 65 34213ft 534kts
28-Jan-17 04:18 45.150621 -56.872539 65 34208ft 534kts
28-Jan-17 04:19 45.213597 -56.682735 65 34208ft 534kts
28-Jan-17 04:20 45.275535 -56.492792 65 34211ft 534kts
28-Jan-17 04:21 45.337372 -56.301662 65 34213ft 534kts
28-Jan-17 04:22 45.398933 -56.109975 65 34215ft 534kts
28-Jan-17 04:23 45.460279 -55.917534 65 34218ft 534kts
28-Jan-17 04:24 45.511434 -55.758015 66 34210ft 534kts
28-Jan-17 04:25 45.581888 -55.534202 66 34204ft 534kts
28-Jan-17 04:26 45.642001 -55.341357 66 34207ft 534kts
28-Jan-17 04:27 45.701935 -55.147608 66 34209ft 535kts
28-Jan-17 04:28 45.761949 -54.952109 66 34212ft 539kts
28-Jan-17 04:29 45.822300 -54.756145 67 34204ft 539kts
28-Jan-17 04:30 45.881604 -54.560332 67 34206ft 539kts
28-Jan-17 04:31 45.940763 -54.363080 67 34209ft 539kts
28-Jan-17 04:32 45.989864 -54.198167 67 34212ft 539kts
28-Jan-17 04:33 46.048226 -54.000713 67 34233ft 539kts
28-Jan-17 04:34 46.106092 -53.805147 68 34227ft 539kts
28-Jan-17 04:35 46.173696 -53.573464 68 34230ft 539kts
28-Jan-17 04:36 46.221748 -53.406854 68 34233ft 539kts
28-Jan-17 04:37 46.288268 -53.174295 68 34236ft 539kts
28-Jan-17 04:38 46.335614 -53.007400 68 34238ft 539kts
28-Jan-17 04:39 46.392798 -52.806075 68 34230ft 542kts
28-Jan-17 04:40 46.449432 -52.604157 68 34232ft 542kts
28-Jan-17 04:41 46.505554 -52.401492 68 34235ft 542kts
28-Jan-17 04:42 46.561234 -52.198683 69 34230ft 542kts
28-Jan-17 04:43 46.616510 -51.995599 68 34232ft 542kts
28-Jan-17 04:44 46.672029 -51.791926 69 34224ft 542kts
28-Jan-17 04:45 46.726865 -51.587754 69 34226ft 542kts
28-Jan-17 04:46 46.781124 -51.383202 69 34229ft 542kts
28-Jan-17 04:47 46.834966 -51.178405 69 34232ft 542kts
28-Jan-17 04:48 46.888688 -50.972239 69 34236ft 544kts
28-Jan-17 04:49 46.942265 -50.767227 70 34227ft 540kts
28-Jan-17 04:50 46.994843 -50.562415 70 34229ft 536kts
28-Jan-17 04:51 47.046436 -50.359084 70 34231ft 532kts
28-Jan-17 04:52 47.097635 -50.155473 71 34243ft 532kts
28-Jan-17 04:53 47.148402 -49.951742 71 34245ft 532kts
28-Jan-17 04:54 47.199241 -49.748513 72 34239ft 532kts
28-Jan-17 04:55 47.249457 -49.543775 72 34241ft 532kts
28-Jan-17 04:56 47.299111 -49.339010 72 34243ft 532kts
28-Jan-17 04:57 47.348377 -49.133937 72 34246ft 532kts
28-Jan-17 04:58 47.397367 -48.928093 72 34248ft 533kts
28-Jan-17 04:59 47.446191 -48.723914 72 34241ft 533kts
28-Jan-17 05:00 47.494548 -48.517225 72 34243ft 533kts
28-Jan-17 05:01 47.542335 -48.310668 72 34246ft 533kts
28-Jan-17 05:02 47.589933 -48.102912 72 34239ft 533kts
28-Jan-17 05:03 47.637021 -47.895374 73 34241ft 533kts
28-Jan-17 05:04 47.684339 -47.687972 73 34235ft 532kts
28-Jan-17 05:05 47.730669 -47.479946 73 34237ft 532kts
28-Jan-17 05:06 47.776581 -47.271520 73 34239ft 532kts
28-Jan-17 05:07 47.822200 -47.062327 73 34241ft 532kts
28-Jan-17 05:08 47.867575 -46.853004 73 34234ft 532kts
28-Jan-17 05:09 47.912912 -46.643407 74 34237ft 532kts
28-Jan-17 05:10 47.957405 -46.433150 74 34239ft 532kts
28-Jan-17 05:11 48.001487 -46.222535 74 34242ft 532kts
28-Jan-17 05:12 48.045023 -46.012339 74 34244ft 532kts
28-Jan-17 05:13 48.088757 -45.801366 74 34237ft 532kts
28-Jan-17 05:14 48.131950 -45.589594 75 34239ft 532kts
28-Jan-17 05:15 48.174382 -45.378114 75 34242ft 532kts
28-Jan-17 05:16 48.216570 -45.165497 75 34244ft 532kts
28-Jan-17 05:17 48.258209 -44.953311 75 34246ft 533kts
28-Jan-17 05:18 48.300275 -44.739922 75 34239ft 533kts
28-Jan-17 05:19 48.341377 -44.526337 75 34241ft 533kts
28-Jan-17 05:20 48.381983 -44.312375 75 34244ft 533kts
28-Jan-17 05:21 48.422208 -44.097971 75 34246ft 533kts
28-Jan-17 05:22 48.461999 -43.883476 76 34245ft 533kts
28-Jan-17 05:23 48.502073 -43.668693 76 34242ft 533kts
28-Jan-17 05:24 48.541159 -43.453160 76 34244ft 533kts
28-Jan-17 05:25 48.579769 -43.237474 76 34238ft 533kts
28-Jan-17 05:26 48.617943 -43.021624 76 34241ft 534kts
28-Jan-17 05:27 48.656256 -42.805070 76 34233ft 535kts
28-Jan-17 05:28 48.694034 -42.587778 77 34236ft 535kts
28-Jan-17 05:29 48.731133 -42.370194 77 34238ft 535kts
28-Jan-17 05:30 48.767738 -42.152726 77 34241ft 535kts
28-Jan-17 05:31 48.804032 -41.934336 77 34243ft 535kts
28-Jan-17 05:32 48.840519 -41.716050 77 34236ft 535kts
28-Jan-17 05:33 48.876018 -41.497339 78 34238ft 535kts
28-Jan-17 05:34 48.911002 -41.278452 78 34240ft 535kts
28-Jan-17 05:35 48.945594 -41.059110 78 34243ft 535kts
28-Jan-17 05:36 48.980002 -40.839715 78 34235ft 533kts
28-Jan-17 05:37 49.013875 -40.622058 79 34238ft 529kts
28-Jan-17 05:38 49.046929 -40.403879 79 34240ft 526kts
28-Jan-17 05:39 49.079166 -40.188000 79 34242ft 522kts
28-Jan-17 05:40 49.110824 -39.973034 79 34265ft 519kts
28-Jan-17 05:41 49.142435 -39.759476 80 34402ft 516kts
28-Jan-17 05:42 49.173204 -39.545633 80 35047ft 518kts
28-Jan-17 05:43 49.203514 -39.331018 80 35048ft 517kts
28-Jan-17 05:44 49.233285 -39.117099 80 35050ft 517kts
28-Jan-17 05:45 49.262696 -38.902675 80 35052ft 515kts
28-Jan-17 05:46 49.292194 -38.689481 81 35047ft 515kts
28-Jan-17 05:47 49.320869 -38.474537 81 35049ft 515kts
28-Jan-17 05:48 49.348973 -38.260235 81 35050ft 515kts
28-Jan-17 05:49 49.376770 -38.044980 81 35052ft 515kts
28-Jan-17 05:50 49.404501 -37.829479 81 35046ft 515kts
28-Jan-17 05:51 49.431816 -37.614305 82 35049ft 515kts
28-Jan-17 05:52 49.458363 -37.398887 82 35051ft 513kts
28-Jan-17 05:53 49.484378 -37.184165 82 35052ft 513kts
28-Jan-17 05:54 49.510073 -36.968570 82 35054ft 514kts
28-Jan-17 05:55 49.535998 -36.752449 83 35050ft 513kts
28-Jan-17 05:56 49.560948 -36.537056 83 35041ft 513kts
28-Jan-17 05:57 49.585499 -36.320258 83 35043ft 513kts
28-Jan-17 05:58 49.609529 -36.104257 83 35045ft 513kts
28-Jan-17 05:59 49.633228 -35.887405 84 35045ft 513kts
28-Jan-17 06:00 49.657133 -35.671110 84 35042ft 513kts
28-Jan-17 06:01 49.680093 -35.453570 84 35043ft 513kts
28-Jan-17 06:02 49.702482 -35.236969 84 35045ft 513kts
28-Jan-17 06:03 49.724588 -35.018960 84 35046ft 513kts
28-Jan-17 06:04 49.746622 -34.802068 84 35041ft 511kts
28-Jan-17 06:05 49.768026 -34.585211 85 35043ft 511kts
28-Jan-17 06:06 49.788793 -34.367945 85 35045ft 511kts
28-Jan-17 06:07 49.809136 -34.150564 85 35046ft 511kts
28-Jan-17 06:08 49.829045 -33.933282 85 35048ft 511kts
28-Jan-17 06:09 49.849178 -33.716110 85 35043ft 511kts
28-Jan-17 06:10 49.868413 -33.497844 86 35044ft 511kts
28-Jan-17 06:11 49.887120 -33.279848 86 35046ft 511kts
28-Jan-17 06:12 49.905403 -33.061846 86 35048ft 511kts
28-Jan-17 06:13 49.923585 -32.842850 86 35045ft 513kts
28-Jan-17 06:14 49.941549 -32.624115 87 35045ft 512kts
28-Jan-17 06:15 49.958646 -32.405400 87 35047ft 513kts
28-Jan-17 06:16 49.975390 -32.185333 87 35048ft 513kts
28-Jan-17 06:17 49.991646 -31.965972 87 35050ft 513kts
28-Jan-17 06:18 50.008106 -31.746572 87 35046ft 512kts
28-Jan-17 06:19 50.023646 -31.527287 88 35044ft 512kts
28-Jan-17 06:20 50.038654 -31.307754 88 35047ft 512kts
28-Jan-17 06:21 50.053314 -31.087092 88 35048ft 515kts
28-Jan-17 06:22 50.067807 -30.863770 88 35046ft 520kts
28-Jan-17 06:23 50.082330 -30.641164 89 35047ft 520kts
28-Jan-17 06:24 50.095928 -30.417378 89 35043ft 519kts
28-Jan-17 06:25 50.109037 -30.193614 89 35052ft 520kts
28-Jan-17 06:26 50.121691 -29.970207 89 35051ft 520kts
28-Jan-17 06:27 50.134542 -29.746441 90 35044ft 518kts
28-Jan-17 06:28 50.146474 -29.522766 90 35047ft 518kts
28-Jan-17 06:29 50.157854 -29.298811 90 35046ft 519kts
28-Jan-17 06:30 50.168803 -29.074815 90 35055ft 520kts
28-Jan-17 06:31 50.179371 -28.852724 89 35047ft 512kts
28-Jan-17 06:32 50.189851 -28.632473 89 35050ft 509kts
28-Jan-17 06:33 50.199386 -28.411976 89 35046ft 510kts
28-Jan-17 06:34 50.208436 -28.192157 89 35051ft 510kts
28-Jan-17 06:35 50.217140 -27.970823 89 35047ft 510kts
28-Jan-17 06:36 50.225944 -27.750873 89 35052ft 510kts
28-Jan-17 06:37 50.233918 -27.529916 90 35046ft 510kts
28-Jan-17 06:38 50.241330 -27.309595 89 35046ft 510kts
28-Jan-17 06:39 50.248196 -27.092725 89 35073ft 510kts
28-Jan-17 06:40 50.254769 -26.872300 86 35070ft 505kts
28-Jan-17 06:41 50.261528 -26.654860 86 35072ft 505kts
28-Jan-17 06:42 50.267271 -26.435914 87 35072ft 505kts
28-Jan-17 06:43 50.272534 -26.218107 87 35075ft 505kts
28-Jan-17 06:44 50.277414 -25.999263 87 35076ft 505kts
28-Jan-17 06:45 50.282383 -25.781129 87 35070ft 504kts
28-Jan-17 06:46 50.286636 -25.562102 87 35073ft 505kts
28-Jan-17 06:47 50.290278 -25.344045 87 35073ft 505kts
28-Jan-17 06:48 50.293514 -25.124698 87 35071ft 504kts
28-Jan-17 06:49 50.296319 -24.907122 87 35076ft 500kts
28-Jan-17 06:50 50.299370 -24.691093 88 35072ft 501kts
28-Jan-17 06:51 50.301423 -24.474041 88 35074ft 501kts
28-Jan-17 06:52 50.302995 -24.260546 88 35072ft 501kts
28-Jan-17 06:53 50.304185 -24.042926 88 35077ft 501kts
28-Jan-17 06:54 50.305305 -23.826091 88 35071ft 501kts
28-Jan-17 06:55 50.306050 -23.608967 89 35074ft 501kts
28-Jan-17 06:56 50.306046 -23.391394 89 35073ft 502kts
28-Jan-17 06:57 50.305617 -23.173612 89 35073ft 501kts
28-Jan-17 06:58 50.304783 -22.956329 89 35074ft 498kts
28-Jan-17 06:59 50.304171 -22.742273 90 35070ft 490kts
28-Jan-17 07:00 50.302689 -22.530204 90 35073ft 490kts
28-Jan-17 07:01 50.300708 -22.317529 90 35074ft 490kts
28-Jan-17 07:02 50.298329 -22.104400 90 35074ft 490kts
28-Jan-17 07:03 50.295579 -21.892602 91 34934ft 490kts
28-Jan-17 07:04 50.293101 -21.680206 91 34857ft 490kts
28-Jan-17 07:05 50.289613 -21.467485 91 34857ft 490kts
28-Jan-17 07:06 50.285683 -21.254587 91 34857ft 490kts
28-Jan-17 07:07 50.281379 -21.042096 91 34858ft 491kts
28-Jan-17 07:08 50.276996 -20.829434 91 34856ft 492kts
28-Jan-17 07:09 50.272264 -20.615944 92 34854ft 493kts
28-Jan-17 07:10 50.266769 -20.402604 92 34861ft 493kts
28-Jan-17 07:11 50.260891 -20.189150 92 34856ft 492kts
28-Jan-17 07:12 50.254587 -19.975819 92 34860ft 492kts
28-Jan-17 07:13 50.248486 -19.762892 92 34852ft 493kts
28-Jan-17 07:14 50.241586 -19.549768 93 34858ft 493kts
28-Jan-17 07:15 50.234129 -19.336433 93 34859ft 492kts
28-Jan-17 07:16 50.226276 -19.122960 92 34859ft 495kts
28-Jan-17 07:17 50.217928 -18.907234 92 34857ft 503kts
28-Jan-17 07:18 50.209852 -18.691806 93 34860ft 502kts
28-Jan-17 07:19 50.200723 -18.474974 93 34858ft 502kts
28-Jan-17 07:20 50.191134 -18.258473 93 34858ft 502kts
28-Jan-17 07:21 50.181120 -18.041407 93 34858ft 502kts
28-Jan-17 07:22 50.171069 -17.824920 93 34854ft 502kts
28-Jan-17 07:23 50.160625 -17.608774 94 34860ft 503kts
28-Jan-17 07:24 50.149402 -17.391778 94 34860ft 503kts
28-Jan-17 07:25 50.137767 -17.175090 94 34856ft 502kts
28-Jan-17 07:26 50.125768 -16.959173 93 34860ft 506kts
28-Jan-17 07:27 50.113740 -16.739298 94 34856ft 515kts
28-Jan-17 07:28 50.100706 -16.517995 93 34855ft 515kts
28-Jan-17 07:29 50.087152 -16.296815 94 34859ft 514kts
28-Jan-17 07:30 50.073144 -16.075408 94 34859ft 515kts
28-Jan-17 07:31 50.058894 -15.854575 94 34852ft 515kts
28-Jan-17 07:32 50.044653 -15.634362 95 34856ft 515kts
28-Jan-17 07:33 50.029447 -15.413833 94 34855ft 515kts
28-Jan-17 07:34 50.013796 -15.193378 95 34859ft 515kts
28-Jan-17 07:35 50.001743 -14.971825 89 34865ft 520kts
28-Jan-17 07:36 50.001052 -14.746020 87 34854ft 524kts
28-Jan-17 07:37 50.001167 -14.520430 87 34856ft 524kts
28-Jan-17 07:38 50.000815 -14.294278 87 34858ft 524kts
28-Jan-17 07:39 50.000021 -14.068073 87 34861ft 524kts
28-Jan-17 07:40 50.003686 -13.843776 84 34853ft 523kts
28-Jan-17 07:41 50.009350 -13.618764 85 34855ft 523kts
28-Jan-17 07:42 50.014069 -13.393234 85 34858ft 523kts
28-Jan-17 07:43 50.018315 -13.167772 85 34859ft 523kts
28-Jan-17 07:44 50.022135 -12.940986 83 34860ft 527kts
28-Jan-17 07:45 50.026195 -12.714673 84 34853ft 527kts
28-Jan-17 07:46 50.029251 -12.487097 84 34855ft 527kts
28-Jan-17 07:47 50.031768 -12.259322 84 34859ft 527kts
28-Jan-17 07:48 50.033835 -12.032226 84 34859ft 527kts
28-Jan-17 07:49 50.035894 -11.805611 85 34855ft 527kts
28-Jan-17 07:50 50.037368 -11.578723 85 34855ft 527kts
28-Jan-17 07:51 50.038123 -11.350656 85 34856ft 527kts
28-Jan-17 07:52 50.038429 -11.125148 87 34859ft 526kts
28-Jan-17 07:53 50.038255 -10.898828 87 34863ft 528kts
28-Jan-17 07:54 50.038371 -10.670598 86 34855ft 531kts
28-Jan-17 07:55 50.037393 -10.443934 87 34856ft 531kts
28-Jan-17 07:56 50.035882 -10.212772 87 34859ft 530kts
28-Jan-17 07:57 50.033940 -9.984225 86 34861ft 530kts
28-Jan-17 07:58 50.032141 -9.755685 87 34854ft 531kts
28-Jan-17 07:59 50.029471 -9.528206 87 34856ft 530kts
28-Jan-17 08:00 50.026181 -9.299027 87 34858ft 531kts
28-Jan-17 08:01 50.022443 -9.070611 87 34861ft 530kts
28-Jan-17 08:02 50.018516 -8.845119 87 34852ft 527kts
28-Jan-17 08:03 50.014450 -8.618313 88 34855ft 528kts
28-Jan-17 08:04 50.009418 -8.390771 88 34857ft 528kts
28-Jan-17 08:05 50.003926 -8.163416 88 34860ft 528kts
28-Jan-17 08:06 50.001987 -7.936841 77 34858ft 521kts
28-Jan-17 08:07 50.019093 -7.714220 79 34855ft 522kts
28-Jan-17 08:08 50.033602 -7.489978 79 34856ft 522kts
28-Jan-17 08:09 50.047471 -7.265723 79 34942ft 522kts
28-Jan-17 08:10 50.060847 -7.041942 79 35001ft 519kts
28-Jan-17 08:11 50.074072 -6.820159 79 34995ft 517kts
28-Jan-17 08:12 50.086906 -6.597306 79 34997ft 517kts
28-Jan-17 08:13 50.098952 -6.374578 80 34999ft 517kts
28-Jan-17 08:14 50.110556 -6.151718 79 35000ft 517kts
28-Jan-17 08:15 50.121723 -5.928906 79 35002ft 517kts
28-Jan-17 08:16 50.133141 -5.705936 80 34995ft 518kts
28-Jan-17 08:17 50.166876 -5.493237 65 34999ft 505kts
28-Jan-17 08:18 50.210385 -5.285166 65 34998ft 505kts
28-Jan-17 08:19 50.253304 -5.078012 65 34956ft 504kts
28-Jan-17 08:20 50.295801 -4.870998 65 34933ft 502kts
28-Jan-17 08:21 50.338486 -4.664070 65 34932ft 500kts
28-Jan-17 08:22 50.380183 -4.456668 65 34931ft 501kts
28-Jan-17 08:23 50.421490 -4.248727 65 34934ft 501kts
28-Jan-17 08:24 50.455592 -4.075342 65 34937ft 501kts
28-Jan-17 08:25 50.503031 -3.833269 65 34929ft 502kts
28-Jan-17 08:26 50.543739 -3.623810 65 34929ft 502kts
28-Jan-17 08:27 50.583106 -3.416930 66 34944ft 502kts
28-Jan-17 08:28 50.615919 -3.242602 66 34946ft 501kts
28-Jan-17 08:29 50.615919 -3.242602 66 34946ft 501kts
28-Jan-17 08:30 50.615919 -3.242602 66 34946ft 501kts
28-Jan-17 08:31 50.615919 -3.242602 66 34946ft 501kts
28-Jan-17 08:32 50.615919 -3.242602 66 34946ft 501kts
28-Jan-17 08:33 50.615919 -3.242602 66 34946ft 501kts
28-Jan-17 08:34 50.615919 -3.242602 66 34946ft 501kts
28-Jan-17 08:35 50.615919 -3.242602 66 34946ft 501kts
28-Jan-17 08:36 50.615919 -3.242602 66 34946ft 501kts
28-Jan-17 08:37 50.615919 -3.242602 66 34946ft 501kts
28-Jan-17 08:38 50.615919 -3.242602 66 34946ft 501kts
28-Jan-17 08:39 50.615919 -3.242602 66 34946ft 501kts
28-Jan-17 08:40 50.615919 -3.242602 66 34946ft 501kts
28-Jan-17 08:41 50.615919 -3.242602 66 34946ft 501kts
28-Jan-17 08:42 50.615919 -3.242602 66 34946ft 501kts
28-Jan-17 08:43 50.615919 -3.242602 66 34946ft 501kts
28-Jan-17 08:44 50.615919 -3.242602 66 34946ft 501kts
28-Jan-17 08:45 50.615919 -3.242602 66 34946ft 501kts
28-Jan-17 08:46 50.615919 -3.242602 66 34946ft 501kts
28-Jan-17 08:47 50.615919 -3.242602 66 34946ft 501kts
28-Jan-17 08:48 50.615919 -3.242602 66 34946ft 501kts
28-Jan-17 08:49 50.615919 -3.242602 66 34946ft 501kts
28-Jan-17 08:50 50.615919 -3.242602 66 34946ft 501kts
28-Jan-17 08:51 50.615919 -3.242602 66 34946ft 501kts
28-Jan-17 08:52 50.615919 -3.242602 66 34946ft 501kts
28-Jan-17 08:53 50.615919 -3.242602 66 34946ft 501kts
28-Jan-17 08:54 50.615919 -3.242602 66 34946ft 501kts
28-Jan-17 08:55 50.615919 -3.242602 66 34946ft 501kts
28-Jan-17 08:56 50.615919 -3.242602 66 34946ft 501kts
28-Jan-17 08:57 50.615919 -3.242602 66 34946ft 501kts
28-Jan-17 08:58 50.615919 -3.242602 66 34946ft 501kts
28-Jan-17 08:59 50.615919 -3.242602 66 34946ft 501kts
28-Jan-17 09:00 50.615919 -3.242602 66 34946ft 501kts
28-Jan-17 09:01 50.615919 -3.242602 66 34946ft 501kts
28-Jan-17 09:02 50.615919 -3.242602 66 34946ft 501kts
28-Jan-17 09:03 50.615919 -3.242602 66 34946ft 501kts
28-Jan-17 09:04 50.615919 -3.242602 66 34946ft 501kts
28-Jan-17 09:05 50.615919 -3.242602 66 34946ft 501kts
28-Jan-17 09:06 50.615919 -3.242602 66 34946ft 501kts
28-Jan-17 09:07 50.615919 -3.242602 66 34946ft 501kts
28-Jan-17 09:08 50.615919 -3.242602 66 34946ft 501kts
28-Jan-17 09:09 50.615919 -3.242602 66 34946ft 501kts
28-Jan-17 09:10 50.615919 -3.242602 66 34946ft 501kts
28-Jan-17 09:11 50.615919 -3.242602 66 34946ft 501kts
28-Jan-17 09:12 50.615919 -3.242602 66 34946ft 501kts
28-Jan-17 09:13 50.616543 -3.239267 66 34946ft 501kts
28-Jan-17 09:14 50.653903 -3.038731 67 34391ft 501kts
28-Jan-17 09:15 50.692127 -2.833216 69 31994ft 497kts
28-Jan-17 09:16 50.730799 -2.623178 71 29474ft 504kts
28-Jan-17 09:17 50.729375 -2.403897 107 26924ft 507kts
28-Jan-17 09:18 50.697897 -2.190017 89 24401ft 509kts
28-Jan-17 09:19 50.734659 -1.979085 54 21862ft 504kts
28-Jan-17 09:20 50.813158 -1.799315 54 19353ft 507kts
28-Jan-17 09:21 50.891275 -1.613599 55 16879ft 510kts
28-Jan-17 09:22 50.968776 -1.426815 55 16804ft 502kts
28-Jan-17 09:23 51.034268 -1.267877 55 13845ft 380kts
28-Jan-17 09:24 51.092185 -1.126659 56 11541ft 383kts
28-Jan-17 09:25 51.144499 -0.998440 56 9040ft 306kts
28-Jan-17 09:26 51.189896 -0.886720 56 7271ft 306kts
28-Jan-17 09:27 51.235350 -0.775499 57 5512ft 277kts
28-Jan-17 09:28 51.273045 -0.681931 56 4263ft 244kts
28-Jan-17 09:29 51.309172 -0.591908 57 3460ft 242kts
28-Jan-17 09:30 51.334117 -0.492145 69 3067ft 243kts
28-Jan-17 09:31 51.357705 -0.391364 69 2990ft 241kts
28-Jan-17 09:32 51.382079 -0.301071 41 2916ft 198kts
28-Jan-17 09:33 51.429281 -0.263927 23 2502ft 197kts
28-Jan-17 09:34 51.473254 -0.279182 303 1210ft 157kts
28-Jan-17 09:35 51.478539 -0.341871 269 923ft 140kts
28-Jan-17 09:36 51.477788 -0.404856 268 499ft 150kts
28-Jan-17 09:37 51.477597 -0.456227 268 94ft 46kts
28-Jan-17 09:38 51.476513 -0.468699 222 94ft 17kts
28-Jan-17 09:39 51.475138 -0.465627 91 94ft 14kts
28-Jan-17 09:40 51.473979 -0.461253 147 94ft 9kts
28-Jan-17 09:41 51.472298 -0.461037 239 94ft 0kts
28-Jan-17 09:42 51.472298 -0.461037 239 94ft 0kts
28-Jan-17 09:43 51.472298 -0.461037 239 94ft 0kts

Navigation Log

Ident Type
Flight plan parsing failed, navigation log unavailable